createdAt,value
2023-03-11T00:01:31.240Z,49.90
2023-03-11T00:04:03.556Z,41.20
2023-03-11T00:06:37.868Z,48.30
2023-03-11T00:09:10.482Z,47.70
2023-03-11T00:11:42.953Z,35.30
2023-03-11T00:14:15.438Z,112.60
2023-03-11T00:16:47.876Z,128.70
2023-03-11T00:19:20.428Z,80.20
2023-03-11T00:21:52.812Z,84.00
2023-03-11T00:24:25.101Z,83.50
2023-03-11T00:26:57.499Z,101.90
2023-03-11T00:29:30.173Z,87.40
2023-03-11T00:32:02.665Z,107.60
2023-03-11T00:34:35.303Z,62.50
2023-03-11T00:37:07.677Z,30.10
2023-03-11T00:39:40.028Z,26.70
2023-03-11T00:42:12.468Z,33.10
2023-03-11T00:44:44.897Z,40.30
2023-03-11T00:47:17.289Z,43.20
2023-03-11T00:49:50.257Z,56.10
2023-03-11T00:52:22.520Z,40.20
2023-03-11T00:54:55.040Z,23.90
2023-03-11T00:57:29.377Z,26.20
2023-03-11T01:00:01.955Z,24.30
2023-03-11T01:02:36.118Z,26.20
2023-03-11T01:05:09.578Z,25.30
2023-03-11T01:07:42.007Z,26.50
2023-03-11T01:10:15.928Z,36.00
2023-03-11T01:12:48.228Z,34.90
2023-03-11T01:15:23.387Z,24.50
2023-03-11T01:17:55.672Z,21.00
2023-03-11T01:20:28.200Z,22.70
2023-03-11T01:23:00.703Z,26.50
2023-03-11T01:25:33.926Z,28.30
2023-03-11T01:28:08.411Z,34.70
2023-03-11T01:30:43.167Z,34.50
2023-03-11T01:33:20.346Z,25.60
2023-03-11T01:35:52.778Z,21.40
2023-03-11T01:38:25.245Z,22.30
2023-03-11T01:40:57.636Z,21.20
2023-03-11T01:43:50.557Z,20.00
2023-03-11T01:46:29.278Z,22.60
2023-03-11T01:49:03.994Z,22.90
2023-03-11T01:51:42.572Z,21.30
2023-03-11T01:54:21.030Z,254.10
2023-03-11T01:56:54.456Z,72.90
2023-03-11T01:59:30.207Z,24.10
2023-03-11T02:02:09.713Z,23.20
2023-03-11T02:04:43.654Z,18.60
2023-03-11T02:07:17.120Z,28.60
2023-03-11T02:09:49.985Z,20.00
2023-03-11T02:12:23.104Z,18.60
2023-03-11T02:14:55.789Z,22.90
2023-03-11T02:17:28.296Z,24.10
2023-03-11T02:20:13.797Z,35.90
2023-03-11T02:22:47.292Z,51.20
2023-03-11T02:25:27.732Z,26.80
2023-03-11T02:28:02.314Z,27.50
2023-03-11T02:30:36.968Z,26.60
2023-03-11T02:33:10.134Z,26.90
2023-03-11T02:35:42.750Z,29.00
2023-03-11T02:38:15.391Z,27.60
2023-03-11T02:40:54.011Z,31.40
2023-03-11T02:43:33.598Z,32.50
2023-03-11T02:46:10.155Z,35.70
2023-03-11T02:48:44.439Z,35.40
2023-03-11T02:51:17.397Z,38.80
2023-03-11T02:53:52.834Z,36.00
2023-03-11T02:56:25.852Z,36.30
2023-03-11T02:58:58.356Z,40.90
2023-03-11T03:01:31.171Z,37.80
2023-03-11T03:04:04.261Z,38.70
2023-03-11T03:06:37.820Z,37.80
2023-03-11T03:09:10.162Z,41.70
2023-03-11T03:11:42.512Z,38.10
2023-03-11T03:14:15.120Z,35.80
2023-03-11T03:16:47.705Z,32.90
2023-03-11T03:19:20.300Z,34.70
2023-03-11T03:21:52.648Z,35.50
2023-03-11T03:24:26.868Z,33.50
2023-03-11T03:26:59.242Z,32.50
2023-03-11T03:29:32.109Z,33.40
2023-03-11T03:32:05.090Z,38.20
2023-03-11T03:34:38.441Z,33.00
2023-03-11T03:37:10.759Z,31.90
2023-03-11T03:39:43.284Z,31.30
2023-03-11T03:42:16.606Z,30.10
2023-03-11T03:44:49.721Z,28.20
2023-03-11T03:47:22.352Z,28.70
2023-03-11T03:49:54.877Z,27.50
2023-03-11T03:52:27.252Z,28.30
2023-03-11T03:54:59.712Z,26.30
2023-03-11T03:57:32.975Z,23.50
2023-03-11T04:00:10.216Z,25.60
2023-03-11T04:02:50.415Z,25.90
2023-03-11T04:05:30.470Z,20.00
2023-03-11T04:08:02.796Z,19.80
2023-03-11T04:10:35.117Z,18.20
2023-03-11T04:13:08.163Z,19.70
2023-03-11T04:15:41.758Z,18.10
2023-03-11T04:18:14.167Z,19.90
2023-03-11T04:20:46.656Z,19.90
2023-03-11T04:23:20.518Z,22.20
2023-03-11T04:25:52.782Z,38.50
2023-03-11T04:28:25.336Z,23.30
2023-03-11T04:30:58.237Z,28.70
2023-03-11T04:33:30.849Z,33.10
2023-03-11T04:36:08.974Z,23.40
2023-03-11T04:38:42.234Z,22.00
2023-03-11T04:41:15.439Z,20.80
2023-03-11T04:43:48.091Z,16.80
2023-03-11T04:46:20.563Z,20.40
2023-03-11T04:48:53.783Z,21.30
2023-03-11T04:51:26.488Z,16.90
2023-03-11T04:53:58.938Z,14.10
2023-03-11T04:56:32.677Z,16.10
2023-03-11T04:59:05.226Z,15.90
2023-03-11T05:01:38.247Z,17.20
2023-03-11T05:04:12.916Z,13.80
2023-03-11T05:06:45.900Z,15.80
2023-03-11T05:09:18.502Z,13.30
2023-03-11T05:11:50.907Z,11.30
2023-03-11T05:14:23.789Z,32.80
2023-03-11T05:16:56.926Z,26.50
2023-03-11T05:19:32.344Z,44.60
2023-03-11T05:22:07.404Z,26.80
2023-03-11T05:24:40.038Z,12.30
2023-03-11T05:27:12.852Z,8.40
2023-03-11T05:29:45.990Z,5.90
2023-03-11T05:32:19.384Z,5.90
2023-03-11T05:34:53.428Z,6.70
2023-03-11T05:37:26.290Z,7.80
2023-03-11T05:40:00.475Z,6.20
2023-03-11T05:42:32.903Z,6.40
2023-03-11T05:45:05.549Z,5.60
2023-03-11T05:47:38.492Z,7.00
2023-03-11T05:50:15.499Z,10.10
2023-03-11T05:52:48.766Z,30.40
2023-03-11T05:55:21.668Z,19.80
2023-03-11T05:57:55.279Z,18.00
2023-03-11T06:00:29.597Z,22.80
2023-03-11T06:03:04.016Z,18.30
2023-03-11T06:05:36.412Z,15.10
2023-03-11T06:08:08.840Z,13.50
2023-03-11T06:10:41.176Z,8.20
2023-03-11T06:13:13.572Z,15.30
2023-03-11T06:15:53.419Z,17.60
2023-03-11T06:18:27.067Z,18.20
2023-03-11T06:21:01.660Z,20.40
2023-03-11T06:23:34.048Z,18.80
2023-03-11T06:26:08.052Z,13.30
2023-03-11T06:28:45.024Z,17.70
2023-03-11T06:31:20.723Z,13.90
2023-03-11T06:33:53.310Z,15.60
2023-03-11T06:36:26.335Z,13.70
2023-03-11T06:38:58.864Z,19.00
2023-03-11T06:41:34.053Z,48.60
2023-03-11T06:44:07.022Z,21.60
2023-03-11T06:46:41.168Z,18.10
2023-03-11T06:49:13.505Z,9.70
2023-03-11T06:51:46.238Z,15.70
2023-03-11T06:54:19.190Z,13.70
2023-03-11T06:56:51.589Z,10.10
2023-03-11T06:59:24.319Z,9.10
2023-03-11T07:01:57.862Z,8.50
2023-03-11T07:04:30.404Z,8.10
2023-03-11T07:07:02.854Z,13.70
2023-03-11T07:09:35.318Z,17.70
2023-03-11T07:12:11.144Z,8.10
2023-03-11T07:14:44.091Z,10.40
2023-03-11T07:17:16.396Z,55.90
2023-03-11T07:19:52.623Z,16.80
2023-03-11T07:22:24.945Z,4.90
2023-03-11T07:24:57.198Z,7.60
2023-03-11T07:27:30.686Z,8.40
2023-03-11T07:30:03.734Z,9.30
2023-03-11T07:32:36.043Z,15.80
2023-03-11T07:35:10.801Z,21.80
2023-03-11T07:37:43.180Z,9.70
2023-03-11T07:40:17.278Z,10.70
2023-03-11T07:42:49.633Z,20.50
2023-03-11T07:45:24.167Z,36.40
2023-03-11T07:47:56.486Z,28.40
2023-03-11T07:50:28.904Z,34.00
2023-03-11T07:53:01.248Z,12.30
2023-03-11T07:55:34.540Z,13.80
2023-03-11T07:58:07.180Z,13.10
2023-03-11T08:00:39.441Z,11.20
2023-03-11T08:03:11.826Z,20.70
2023-03-11T08:05:44.252Z,20.70
2023-03-11T08:08:16.607Z,17.70
2023-03-11T08:10:49.039Z,18.90
2023-03-11T08:13:21.382Z,11.00
2023-03-11T08:15:53.684Z,9.70
2023-03-11T08:18:26.120Z,10.60
2023-03-11T08:20:58.533Z,11.50
2023-03-11T08:23:31.092Z,22.20
2023-03-11T08:26:06.216Z,19.50
2023-03-11T08:28:38.976Z,29.50
2023-03-11T08:31:16.850Z,19.00
2023-03-11T08:33:51.082Z,22.10
2023-03-11T08:36:23.781Z,14.60
2023-03-11T08:38:56.107Z,13.60
2023-03-11T08:41:29.326Z,12.10
2023-03-11T08:44:01.938Z,17.40
2023-03-11T08:46:36.974Z,23.60
2023-03-11T08:49:10.006Z,25.90
2023-03-11T08:51:42.739Z,29.00
2023-03-11T08:54:14.987Z,22.40
2023-03-11T08:56:48.094Z,18.30
2023-03-11T08:59:20.362Z,18.50
2023-03-11T09:01:52.714Z,26.70
2023-03-11T09:04:25.041Z,19.70
2023-03-11T09:06:57.239Z,36.20
2023-03-11T09:09:29.522Z,19.70
2023-03-11T09:12:01.772Z,8.90
2023-03-11T09:14:34.067Z,13.70
2023-03-11T09:17:06.420Z,16.70
2023-03-11T09:19:39.257Z,9.80
2023-03-11T09:22:11.623Z,11.60
2023-03-11T09:24:43.886Z,10.40
2023-03-11T09:27:16.362Z,10.60
2023-03-11T09:29:48.684Z,13.50
2023-03-11T09:32:21.377Z,11.20
2023-03-11T09:34:53.869Z,15.40
2023-03-11T09:37:27.083Z,18.30
2023-03-11T09:39:59.424Z,18.30
2023-03-11T09:42:38.989Z,18.60
2023-03-11T09:45:19.477Z,12.20
2023-03-11T09:48:06.043Z,10.00
2023-03-11T09:50:44.060Z,13.60
2023-03-11T09:53:24.001Z,13.00
2023-03-11T09:55:58.640Z,13.40
2023-03-11T09:58:39.995Z,13.90
2023-03-11T10:01:19.285Z,12.30
2023-03-11T10:03:54.623Z,12.20
2023-03-11T10:06:30.607Z,8.90
2023-03-11T10:09:08.672Z,12.20
2023-03-11T10:11:57.501Z,9.60
2023-03-11T10:14:51.679Z,12.90
2023-03-11T10:17:44.107Z,12.40
2023-03-11T10:20:26.189Z,9.30
2023-03-11T10:23:10.344Z,9.40
2023-03-11T10:25:53.730Z,11.00
2023-03-11T10:28:33.725Z,24.90
2023-03-11T10:31:19.086Z,51.30
2023-03-11T10:36:28.464Z,12.20
2023-03-11T10:39:02.095Z,13.60
2023-03-11T10:41:42.892Z,13.40
2023-03-11T10:44:20.498Z,8.20
2023-03-11T10:46:52.759Z,10.50
2023-03-11T10:49:25.054Z,18.20
2023-03-11T10:51:58.512Z,26.50
2023-03-11T10:54:33.726Z,9.70
2023-03-11T10:59:49.805Z,15.60
2023-03-11T11:02:27.185Z,19.60
2023-03-11T11:05:28.323Z,38.10
2023-03-11T11:08:09.710Z,39.60
2023-03-11T11:10:52.741Z,17.90
2023-03-11T11:13:26.916Z,25.40
2023-03-11T11:16:01.699Z,17.70
2023-03-11T11:18:38.032Z,9.00
2023-03-11T11:21:15.122Z,11.40
2023-03-11T11:23:53.024Z,11.90
2023-03-11T11:26:27.517Z,14.60
2023-03-11T11:29:15.190Z,16.80
2023-03-11T11:31:48.559Z,22.20
2023-03-11T11:34:32.101Z,16.00
2023-03-11T11:37:07.065Z,11.10
2023-03-11T11:39:52.105Z,9.70
2023-03-11T11:42:27.684Z,9.80
2023-03-11T11:45:04.579Z,13.50
2023-03-11T11:47:43.294Z,9.00
2023-03-11T11:50:24.909Z,8.00
2023-03-11T11:53:05.932Z,7.70
2023-03-11T11:55:41.229Z,12.40
2023-03-11T12:00:56.240Z,24.80
2023-03-11T12:03:54.937Z,9.70
2023-03-11T12:06:37.097Z,25.10
2023-03-11T12:09:24.345Z,36.30
2023-03-11T12:12:06.353Z,42.80
2023-03-11T12:14:46.649Z,23.50
2023-03-11T12:17:23.625Z,12.90
2023-03-11T12:20:01.309Z,12.90
2023-03-11T12:23:02.690Z,15.80
2023-03-11T12:25:41.566Z,13.10
2023-03-11T12:28:24.965Z,7.00
2023-03-11T12:31:00.723Z,13.40
2023-03-11T12:33:38.228Z,40.60
2023-03-11T12:36:25.712Z,13.30
2023-03-11T12:38:58.495Z,16.10
2023-03-11T12:41:37.038Z,28.40
2023-03-11T12:44:28.888Z,68.00
2023-03-11T12:47:18.490Z,61.20
2023-03-11T12:49:54.973Z,27.10
2023-03-11T12:52:34.428Z,13.70
2023-03-11T12:55:35.240Z,44.40
2023-03-11T12:58:34.252Z,77.70
2023-03-11T13:01:37.098Z,64.80
2023-03-11T13:04:27.019Z,37.50
2023-03-11T13:07:47.680Z,47.00
2023-03-11T13:10:37.455Z,20.00
2023-03-11T13:13:42.720Z,34.20
2023-03-11T13:16:39.785Z,27.30
2023-03-11T13:19:37.050Z,11.80
2023-03-11T13:23:04.863Z,18.20
2023-03-11T13:25:42.056Z,17.90
2023-03-11T13:28:38.910Z,34.60
2023-03-11T13:31:23.889Z,21.60
2023-03-11T13:33:59.160Z,16.10
2023-03-11T13:36:45.891Z,18.30
2023-03-11T13:39:45.589Z,17.90
2023-03-11T13:42:23.623Z,25.70
2023-03-11T13:44:56.306Z,23.30
2023-03-11T13:47:30.187Z,26.30
2023-03-11T13:50:10.296Z,27.40
2023-03-11T13:52:49.126Z,34.20
2023-03-11T13:55:25.156Z,8.70
2023-03-11T13:57:58.662Z,15.30
2023-03-11T14:00:34.075Z,12.70
2023-03-11T14:03:12.910Z,16.40
2023-03-11T14:05:49.386Z,11.30
2023-03-11T14:08:27.041Z,14.90
2023-03-11T14:11:00.448Z,12.70
2023-03-11T14:13:33.870Z,8.10
2023-03-11T14:16:09.993Z,6.00
2023-03-11T14:18:43.643Z,9.50
2023-03-11T14:21:18.281Z,5.70
2023-03-11T14:23:53.389Z,4.90
2023-03-11T14:26:29.212Z,4.40
2023-03-11T14:29:03.828Z,6.30
2023-03-11T14:31:38.111Z,6.00
2023-03-11T14:34:18.370Z,5.00
2023-03-11T14:36:54.419Z,27.60
2023-03-11T14:39:32.492Z,22.40
2023-03-11T14:42:18.912Z,25.30
2023-03-11T14:44:58.031Z,8.70
2023-03-11T14:47:37.807Z,7.20
2023-03-11T14:50:17.572Z,4.60
2023-03-11T14:52:52.967Z,5.20
2023-03-11T14:55:28.364Z,8.50
2023-03-11T14:58:04.776Z,7.00
2023-03-11T15:00:41.693Z,5.30
2023-03-11T15:03:23.666Z,6.50
2023-03-11T15:05:59.197Z,4.50
2023-03-11T15:08:35.979Z,7.50
2023-03-11T15:11:24.469Z,9.30
2023-03-11T15:14:17.419Z,6.10
2023-03-11T15:16:49.972Z,15.90
2023-03-11T15:19:32.251Z,6.40
2023-03-11T15:22:22.625Z,9.50
2023-03-11T15:24:57.189Z,9.90
2023-03-11T15:27:35.486Z,6.90
2023-03-11T15:30:23.297Z,5.40
2023-03-11T15:32:56.364Z,9.60
2023-03-11T15:35:29.939Z,6.20
2023-03-11T15:38:25.659Z,6.20
2023-03-11T15:41:01.446Z,5.80
2023-03-11T15:43:35.955Z,6.50
2023-03-11T15:46:11.801Z,4.10
2023-03-11T15:48:44.990Z,12.70
2023-03-11T15:51:22.229Z,4.50
2023-03-11T15:53:54.588Z,7.40
2023-03-11T15:56:27.350Z,16.80
2023-03-11T15:58:59.798Z,8.20
2023-03-11T16:01:32.570Z,8.00
2023-03-11T16:04:04.889Z,15.80
2023-03-11T16:06:37.452Z,9.40
2023-03-11T16:09:09.980Z,8.10
2023-03-11T16:11:44.015Z,7.20
2023-03-11T16:14:20.078Z,20.20
2023-03-11T16:16:52.426Z,7.40
2023-03-11T16:19:24.961Z,11.10
2023-03-11T16:21:57.278Z,11.20
2023-03-11T16:24:29.843Z,11.00
2023-03-11T16:27:02.353Z,8.00
2023-03-11T16:29:34.870Z,7.30
2023-03-11T16:32:08.734Z,7.50
2023-03-11T16:34:41.202Z,6.20
2023-03-11T16:37:20.715Z,5.60
2023-03-11T16:39:53.834Z,5.20
2023-03-11T16:42:26.399Z,5.40
2023-03-11T16:44:58.767Z,4.80
2023-03-11T16:47:31.146Z,5.20
2023-03-11T16:50:04.210Z,6.40
2023-03-11T16:52:36.848Z,4.20
2023-03-11T16:55:12.325Z,5.50
2023-03-11T16:57:45.183Z,4.70
2023-03-11T17:00:19.102Z,3.60
2023-03-11T17:02:51.484Z,5.60
2023-03-11T17:05:23.807Z,4.60
2023-03-11T17:08:01.146Z,4.90
2023-03-11T17:10:39.358Z,4.60
2023-03-11T17:13:12.865Z,4.10
2023-03-11T17:15:45.899Z,5.20
2023-03-11T17:18:18.215Z,4.80
2023-03-11T17:20:50.586Z,6.60
2023-03-11T17:23:23.408Z,6.50
2023-03-11T17:25:55.838Z,5.50
2023-03-11T17:28:28.646Z,6.40
2023-03-11T17:31:01.176Z,10.30
2023-03-11T17:33:33.459Z,7.30
2023-03-11T17:36:09.747Z,10.00
2023-03-11T17:38:42.293Z,11.60
2023-03-11T17:41:17.000Z,9.20
2023-03-11T17:43:51.547Z,9.20
2023-03-11T17:46:24.273Z,11.60
2023-03-11T17:48:56.710Z,16.90
2023-03-11T17:51:29.177Z,22.10
2023-03-11T17:54:01.892Z,22.90
2023-03-11T17:56:34.275Z,15.70
2023-03-11T17:59:06.624Z,10.10
2023-03-11T18:01:39.337Z,7.20
2023-03-11T18:04:11.706Z,9.70
2023-03-11T18:06:44.436Z,6.70
2023-03-11T18:09:17.228Z,12.30
2023-03-11T18:11:49.581Z,8.00
2023-03-11T18:14:21.817Z,7.40
2023-03-11T18:16:54.201Z,9.50
2023-03-11T18:19:26.586Z,8.80
2023-03-11T18:21:59.013Z,8.50
2023-03-11T18:24:31.379Z,7.50
2023-03-11T18:27:03.698Z,7.50
2023-03-11T18:29:36.081Z,9.10
2023-03-11T18:32:08.929Z,7.00
2023-03-11T18:34:41.778Z,8.20
2023-03-11T18:37:14.089Z,6.90
2023-03-11T18:39:46.955Z,10.50
2023-03-11T18:42:19.238Z,13.30
2023-03-11T18:44:51.671Z,22.00
2023-03-11T18:47:24.084Z,37.70
2023-03-11T18:49:57.134Z,54.40
2023-03-11T18:52:29.523Z,16.30
2023-03-11T18:55:01.913Z,25.80
2023-03-11T18:57:34.245Z,17.20
2023-03-11T19:00:07.900Z,10.20
2023-03-11T19:02:40.189Z,11.20
2023-03-11T19:05:12.731Z,10.80
2023-03-11T19:07:45.054Z,11.20
2023-03-11T19:10:20.103Z,10.90
2023-03-11T19:12:52.529Z,10.20
2023-03-11T19:15:24.948Z,9.90
2023-03-11T19:18:06.219Z,12.40
2023-03-11T19:20:39.771Z,13.10
2023-03-11T19:23:12.410Z,9.00
2023-03-11T19:26:00.692Z,11.40
2023-03-11T19:28:35.120Z,12.70
2023-03-11T19:31:07.895Z,9.20
2023-03-11T19:33:40.430Z,15.70
2023-03-11T19:36:14.086Z,12.10
2023-03-11T19:38:46.381Z,10.90
2023-03-11T19:41:20.584Z,7.20
2023-03-11T19:43:53.153Z,8.80
2023-03-11T19:46:25.581Z,8.60
2023-03-11T19:48:58.971Z,32.40
2023-03-11T19:51:46.430Z,21.20
2023-03-11T19:54:21.773Z,11.60
2023-03-11T19:56:54.148Z,9.40
2023-03-11T19:59:26.474Z,10.40
2023-03-11T20:01:58.925Z,7.50
2023-03-11T20:04:31.456Z,7.00
2023-03-11T20:07:03.997Z,8.10
2023-03-11T20:09:36.628Z,8.70
2023-03-11T20:12:09.740Z,9.30
2023-03-11T20:14:43.337Z,7.10
2023-03-11T20:17:16.014Z,8.30
2023-03-11T20:19:48.265Z,8.50
2023-03-11T20:22:20.840Z,8.00
2023-03-11T20:24:53.536Z,6.20
2023-03-11T20:27:25.871Z,8.10
2023-03-11T20:29:58.293Z,8.30
2023-03-11T20:32:31.139Z,9.60
2023-03-11T20:35:04.272Z,9.50
2023-03-11T20:37:36.673Z,11.30
2023-03-11T20:40:13.169Z,8.00
2023-03-11T20:42:47.260Z,8.00
2023-03-11T20:45:22.059Z,10.30
2023-03-11T20:47:55.855Z,165.70
2023-03-11T20:50:28.253Z,189.00
2023-03-11T20:53:00.666Z,192.90
2023-03-11T20:55:33.249Z,47.90
2023-03-11T20:58:06.190Z,38.50
2023-03-11T21:00:38.839Z,32.00
2023-03-11T21:03:11.418Z,20.70
2023-03-11T21:05:45.689Z,16.60
2023-03-11T21:08:18.350Z,29.20
2023-03-11T21:10:50.931Z,35.30
2023-03-11T21:13:23.745Z,27.10
2023-03-11T21:15:57.674Z,19.90
2023-03-11T21:18:30.277Z,14.50
2023-03-11T21:21:04.016Z,15.00
2023-03-11T21:23:36.984Z,10.50
2023-03-11T21:26:09.978Z,8.30
2023-03-11T21:28:46.777Z,9.80
2023-03-11T21:31:21.342Z,8.60
2023-03-11T21:33:55.465Z,9.10
2023-03-11T21:36:28.325Z,10.60
2023-03-11T21:39:03.409Z,10.60
2023-03-11T21:41:36.355Z,8.90
2023-03-11T21:44:09.001Z,9.50
2023-03-11T21:46:41.570Z,8.20
2023-03-11T21:49:14.103Z,11.80
2023-03-11T21:51:46.448Z,8.60
2023-03-11T21:54:18.913Z,11.00
2023-03-11T21:56:51.457Z,8.80
2023-03-11T21:59:25.584Z,8.70
2023-03-11T22:02:01.432Z,9.00
2023-03-11T22:04:34.279Z,11.60
2023-03-11T22:07:06.859Z,8.40
2023-03-11T22:09:39.259Z,10.70
2023-03-11T22:12:11.706Z,10.10
2023-03-11T22:14:44.038Z,28.10
2023-03-11T22:17:16.608Z,14.50
2023-03-11T22:19:49.414Z,22.00
2023-03-11T22:22:21.876Z,14.60
2023-03-11T22:24:54.089Z,7.10
2023-03-11T22:27:26.423Z,7.90
2023-03-11T22:29:58.688Z,8.40
2023-03-11T22:32:31.000Z,8.30
2023-03-11T22:35:03.533Z,8.50
2023-03-11T22:37:35.876Z,7.00
2023-03-11T22:40:11.358Z,6.50
2023-03-11T22:42:43.734Z,8.50
2023-03-11T22:45:16.144Z,9.30
2023-03-11T22:47:48.446Z,8.10
2023-03-11T22:50:21.899Z,7.90
2023-03-11T22:52:54.275Z,8.10
2023-03-11T22:55:26.884Z,9.10
2023-03-11T22:57:59.267Z,8.90
2023-03-11T23:00:31.667Z,6.70
2023-03-11T23:03:04.410Z,7.40
2023-03-11T23:05:42.064Z,7.80
2023-03-11T23:08:16.668Z,9.20
2023-03-11T23:10:49.669Z,8.10
2023-03-11T23:13:22.177Z,8.40
2023-03-11T23:15:54.508Z,8.70
2023-03-11T23:18:27.481Z,8.90
2023-03-11T23:21:00.007Z,8.80
2023-03-11T23:23:32.535Z,9.10
2023-03-11T23:26:10.273Z,14.60
2023-03-11T23:28:44.384Z,18.20
2023-03-11T23:31:18.972Z,47.80
2023-03-11T23:33:51.501Z,28.80
2023-03-11T23:36:27.636Z,40.90
2023-03-11T23:39:00.353Z,17.60
2023-03-11T23:41:32.711Z,21.00
2023-03-11T23:44:05.416Z,21.90
2023-03-11T23:46:37.804Z,16.90
2023-03-11T23:49:10.167Z,35.30
2023-03-11T23:51:42.616Z,21.90
2023-03-11T23:54:14.893Z,29.80
2023-03-11T23:56:47.415Z,31.40
2023-03-11T23:59:19.732Z,97.40
